sensor_id;sensor_type;location;lat;lon;timestamp;pressure;altitude;pressure_sealevel;temperature;humidity
5913;BME280;2982;42.684;23.356;2023-02-16T00:01:29;96159.66;;;-1.46;100.00
5913;BME280;2982;42.684;23.356;2023-02-16T00:03:56;96152.84;;;-1.59;100.00
5913;BME280;2982;42.684;23.356;2023-02-16T00:06:22;96177.88;;;-1.50;100.00
5913;BME280;2982;42.684;23.356;2023-02-16T00:08:50;96165.41;;;-1.52;100.00
5913;BME280;2982;42.684;23.356;2023-02-16T00:11:32;96164.56;;;-1.52;100.00
5913;BME280;2982;42.684;23.356;2023-02-16T00:13:59;96153.69;;;-1.59;100.00
5913;BME280;2982;42.684;23.356;2023-02-16T00:16:24;96159.69;;;-1.43;100.00
5913;BME280;2982;42.684;23.356;2023-02-16T00:18:50;96163.78;;;-1.48;100.00
5913;BME280;2982;42.684;23.356;2023-02-16T00:21:16;96157.06;;;-1.55;100.00
5913;BME280;2982;42.684;23.356;2023-02-16T00:23:42;96157.84;;;-1.59;100.00
5913;BME280;2982;42.684;23.356;2023-02-16T00:26:22;96155.25;;;-1.65;100.00
5913;BME280;2982;42.684;23.356;2023-02-16T00:28:50;96162.81;;;-1.59;100.00
5913;BME280;2982;42.684;23.356;2023-02-16T00:31:22;96152.84;;;-1.58;100.00
5913;BME280;2982;42.684;23.356;2023-02-16T00:33:52;96129.44;;;-1.70;100.00
5913;BME280;2982;42.684;23.356;2023-02-16T00:36:17;96155.31;;;-1.61;100.00
5913;BME280;2982;42.684;23.356;2023-02-16T00:38:43;96153.66;;;-1.60;100.00
5913;BME280;2982;42.684;23.356;2023-02-16T00:41:17;96161.09;;;-1.63;100.00
5913;BME280;2982;42.684;23.356;2023-02-16T00:43:43;96155.28;;;-1.62;100.00
5913;BME280;2982;42.684;23.356;2023-02-16T00:46:09;96156.06;;;-1.66;100.00
5913;BME280;2982;42.684;23.356;2023-02-16T00:48:34;96157.66;;;-1.71;100.00
5913;BME280;2982;42.684;23.356;2023-02-16T00:50:59;96075.59;;;-2.23;100.00
5913;BME280;2982;42.684;23.356;2023-02-16T00:53:25;96155.94;;;-1.75;100.00
5913;BME280;2982;42.684;23.356;2023-02-16T00:55:50;96151.78;;;-1.75;100.00
5913;BME280;2982;42.684;23.356;2023-02-16T00:58:24;96147.66;;;-1.74;100.00
5913;BME280;2982;42.684;23.356;2023-02-16T01:00:53;96150.19;;;-1.73;100.00
5913;BME280;2982;42.684;23.356;2023-02-16T01:03:24;96150.84;;;-1.82;100.00
5913;BME280;2982;42.684;23.356;2023-02-16T01:05:50;96145.75;;;-1.92;100.00
5913;BME280;2982;42.684;23.356;2023-02-16T01:08:16;96134.00;;;-2.01;100.00
5913;BME280;2982;42.684;23.356;2023-02-16T01:10:41;96143.28;;;-1.89;100.00
5913;BME280;2982;42.684;23.356;2023-02-16T01:13:07;96145.75;;;-1.91;100.00
5913;BME280;2982;42.684;23.356;2023-02-16T01:15:33;96117.38;;;-2.02;100.00
5913;BME280;2982;42.684;23.356;2023-02-16T01:17:59;96147.47;;;-1.88;100.00
5913;BME280;2982;42.684;23.356;2023-02-16T01:20:26;96141.59;;;-1.90;100.00
5913;BME280;2982;42.684;23.356;2023-02-16T01:22:51;96136.56;;;-1.95;100.00
5913;BME280;2982;42.684;23.356;2023-02-16T01:25:17;96133.28;;;-1.92;100.00
5913;BME280;2982;42.684;23.356;2023-02-16T01:27:43;96124.97;;;-1.91;100.00
5913;BME280;2982;42.684;23.356;2023-02-16T01:30:14;96125.66;;;-2.03;100.00
5913;BME280;2982;42.684;23.356;2023-02-16T01:32:40;96113.13;;;-2.09;100.00
5913;BME280;2982;42.684;23.356;2023-02-16T01:35:05;96125.66;;;-2.03;100.00
5913;BME280;2982;42.684;23.356;2023-02-16T01:37:30;96124.72;;;-2.11;100.00
5913;BME280;2982;42.684;23.356;2023-02-16T01:39:56;96119.69;;;-2.15;100.00
5913;BME280;2982;42.684;23.356;2023-02-16T01:42:35;96116.41;;;-2.11;100.00
5913;BME280;2982;42.684;23.356;2023-02-16T01:45:12;96119.75;;;-2.09;100.00
5913;BME280;2982;42.684;23.356;2023-02-16T01:47:50;96116.41;;;-2.11;100.00
5913;BME280;2982;42.684;23.356;2023-02-16T01:50:20;96119.66;;;-2.17;100.00
5913;BME280;2982;42.684;23.356;2023-02-16T01:53:33;96113.78;;;-2.20;100.00
5913;BME280;2982;42.684;23.356;2023-02-16T01:55:43;96090.41;;;-2.30;100.00
5913;BME280;2982;42.684;23.356;2023-02-16T02:03:49;96107.13;;;-2.22;100.00
5913;BME280;2982;42.684;23.356;2023-02-16T02:06:32;96103.75;;;-2.25;100.00
5913;BME280;2982;42.684;23.356;2023-02-16T02:09:05;96100.41;;;-2.27;100.00
5913;BME280;2982;42.684;23.356;2023-02-16T02:11:45;96096.38;;;-2.20;100.00
5913;BME280;2982;42.684;23.356;2023-02-16T02:14:21;96103.69;;;-2.28;100.00
5913;BME280;2982;42.684;23.356;2023-02-16T02:17:06;96102.09;;;-2.26;100.00
5913;BME280;2982;42.684;23.356;2023-02-16T02:19:44;96112.81;;;-2.30;100.00
5913;BME280;2982;42.684;23.356;2023-02-16T02:22:51;96112.91;;;-2.23;100.00
5913;BME280;2982;42.684;23.356;2023-02-16T02:27:54;96094.44;;;-2.38;100.00
5913;BME280;2982;42.684;23.356;2023-02-16T02:41:26;96105.28;;;-2.33;100.00
5913;BME280;2982;42.684;23.356;2023-02-16T02:43:56;96100.31;;;-2.33;100.00
5913;BME280;2982;42.684;23.356;2023-02-16T02:46:34;96099.44;;;-2.37;100.00
5913;BME280;2982;42.684;23.356;2023-02-16T02:49:00;96099.34;;;-2.41;100.00
5913;BME280;2982;42.684;23.356;2023-02-16T02:51:25;96101.09;;;-2.36;100.00
5913;BME280;2982;42.684;23.356;2023-02-16T02:53:55;96100.34;;;-2.32;100.00
5913;BME280;2982;42.684;23.356;2023-02-16T02:56:21;96097.78;;;-2.36;100.00
5913;BME280;2982;42.684;23.356;2023-02-16T02:58:49;96101.00;;;-2.42;100.00
5913;BME280;2982;42.684;23.356;2023-02-16T03:01:17;96082.59;;;-2.51;100.00
5913;BME280;2982;42.684;23.356;2023-02-16T03:03:49;96102.66;;;-2.44;100.00
5913;BME280;2982;42.684;23.356;2023-02-16T03:06:27;96105.09;;;-2.45;100.00
5913;BME280;2982;42.684;23.356;2023-02-16T03:08:58;96074.94;;;-2.67;100.00
5913;BME280;2982;42.684;23.356;2023-02-16T03:11:26;96101.84;;;-2.43;100.00
5913;BME280;2982;42.684;23.356;2023-02-16T03:14:02;96104.41;;;-2.38;100.00
5913;BME280;2982;42.684;23.356;2023-02-16T03:16:40;96088.31;;;-2.58;100.00
5913;BME280;2982;42.684;23.356;2023-02-16T03:19:11;96103.38;;;-2.49;100.00
5913;BME280;2982;42.684;23.356;2023-02-16T03:21:37;96099.09;;;-2.56;100.00
5913;BME280;2982;42.684;23.356;2023-02-16T03:24:07;96078.06;;;-2.77;100.00
5913;BME280;2982;42.684;23.356;2023-02-16T03:26:33;96095.78;;;-2.58;100.00
5913;BME280;2982;42.684;23.356;2023-02-16T03:29:00;96102.41;;;-2.59;100.00
5913;BME280;2982;42.684;23.356;2023-02-16T03:31:33;96094.91;;;-2.62;100.00
5913;BME280;2982;42.684;23.356;2023-02-16T03:33:59;96099.94;;;-2.57;100.00
5913;BME280;2982;42.684;23.356;2023-02-16T03:36:30;96093.09;;;-2.69;100.00
5913;BME280;2982;42.684;23.356;2023-02-16T03:38:57;96079.81;;;-2.71;100.00
5913;BME280;2982;42.684;23.356;2023-02-16T03:41:24;96103.13;;;-2.64;100.00
5913;BME280;2982;42.684;23.356;2023-02-16T03:43:49;96087.31;;;-2.68;100.00
5913;BME280;2982;42.684;23.356;2023-02-16T03:46:15;96084.72;;;-2.76;100.00
5913;BME280;2982;42.684;23.356;2023-02-16T03:48:40;96093.03;;;-2.74;100.00
5913;BME280;2982;42.684;23.356;2023-02-16T03:51:05;96099.63;;;-2.76;100.00
5913;BME280;2982;42.684;23.356;2023-02-16T03:53:31;96100.63;;;-2.66;100.00
5913;BME280;2982;42.684;23.356;2023-02-16T03:55:56;96090.56;;;-2.72;100.00
5913;BME280;2982;42.684;23.356;2023-02-16T03:58:23;96103.94;;;-2.66;100.00
5913;BME280;2982;42.684;23.356;2023-02-16T04:00:50;96103.84;;;-2.72;100.00
5913;BME280;2982;42.684;23.356;2023-02-16T04:03:15;96094.72;;;-2.73;100.00
5913;BME280;2982;42.684;23.356;2023-02-16T04:05:41;96093.75;;;-2.79;100.00
5913;BME280;2982;42.684;23.356;2023-02-16T04:08:07;96090.38;;;-2.83;100.00
5913;BME280;2982;42.684;23.356;2023-02-16T04:10:33;96092.19;;;-2.74;100.00
5913;BME280;2982;42.684;23.356;2023-02-16T04:12:59;96072.97;;;-2.83;100.00
5913;BME280;2982;42.684;23.356;2023-02-16T04:15:26;96060.38;;;-2.93;100.00
5913;BME280;2982;42.684;23.356;2023-02-16T04:17:53;96079.53;;;-2.88;100.00
5913;BME280;2982;42.684;23.356;2023-02-16T04:20:21;96089.63;;;-2.79;100.00
5913;BME280;2982;42.684;23.356;2023-02-16T04:22:47;96073.81;;;-2.82;100.00
5913;BME280;2982;42.684;23.356;2023-02-16T04:25:13;96082.13;;;-2.82;100.00
5913;BME280;2982;42.684;23.356;2023-02-16T04:27:39;96081.25;;;-2.84;100.00
5913;BME280;2982;42.684;23.356;2023-02-16T04:30:09;96084.63;;;-2.82;100.00
5913;BME280;2982;42.684;23.356;2023-02-16T04:32:35;96051.19;;;-2.99;100.00
5913;BME280;2982;42.684;23.356;2023-02-16T04:35:00;96080.41;;;-2.84;100.00
5913;BME280;2982;42.684;23.356;2023-02-16T04:37:25;96079.53;;;-2.88;100.00
5913;BME280;2982;42.684;23.356;2023-02-16T04:39:51;96068.66;;;-2.93;100.00
5913;BME280;2982;42.684;23.356;2023-02-16T04:42:16;96085.28;;;-2.90;100.00
5913;BME280;2982;42.684;23.356;2023-02-16T04:44:41;96091.19;;;-2.84;100.00
5913;BME280;2982;42.684;23.356;2023-02-16T04:47:06;96091.13;;;-2.88;100.00
5913;BME280;2982;42.684;23.356;2023-02-16T04:49:32;96090.13;;;-2.98;100.00
5913;BME280;2982;42.684;23.356;2023-02-16T04:51:57;96086.03;;;-2.96;100.00
5913;BME280;2982;42.684;23.356;2023-02-16T04:54:22;96100.97;;;-2.93;100.00
5913;BME280;2982;42.684;23.356;2023-02-16T04:56:48;96100.00;;;-3.01;100.00
5913;BME280;2982;42.684;23.356;2023-02-16T04:59:14;96098.41;;;-2.99;100.00
5913;BME280;2982;42.684;23.356;2023-02-16T05:01:40;96101.66;;;-3.01;100.00
5913;BME280;2982;42.684;23.356;2023-02-16T05:04:05;96088.28;;;-3.09;100.00
5913;BME280;2982;42.684;23.356;2023-02-16T05:06:30;96100.09;;;-2.96;100.00
5913;BME280;2982;42.684;23.356;2023-02-16T05:08:56;96100.06;;;-2.99;100.00
5913;BME280;2982;42.684;23.356;2023-02-16T05:11:21;96101.69;;;-3.00;100.00
5913;BME280;2982;42.684;23.356;2023-02-16T05:13:46;96094.94;;;-3.07;100.00
5913;BME280;2982;42.684;23.356;2023-02-16T05:16:12;96098.28;;;-3.05;100.00
5913;BME280;2982;42.684;23.356;2023-02-16T05:18:37;96114.84;;;-3.05;100.00
5913;BME280;2982;42.684;23.356;2023-02-16T05:21:02;96099.81;;;-3.12;100.00
5913;BME280;2982;42.684;23.356;2023-02-16T05:23:28;96104.06;;;-3.06;100.00
5913;BME280;2982;42.684;23.356;2023-02-16T05:25:53;96106.66;;;-2.98;100.00
5913;BME280;2982;42.684;23.356;2023-02-16T05:28:18;96099.97;;;-3.02;100.00
5913;BME280;2982;42.684;23.356;2023-02-16T05:30:44;96110.09;;;-2.93;100.00
5913;BME280;2982;42.684;23.356;2023-02-16T05:33:16;96110.03;;;-2.96;100.00
5913;BME280;2982;42.684;23.356;2023-02-16T05:35:41;96114.28;;;-2.91;100.00
5913;BME280;2982;42.684;23.356;2023-02-16T05:38:07;96110.91;;;-2.93;100.00
5913;BME280;2982;42.684;23.356;2023-02-16T05:40:32;96123.59;;;-2.79;100.00
5913;BME280;2982;42.684;23.356;2023-02-16T05:42:57;96119.63;;;-2.71;100.00
5913;BME280;2982;42.684;23.356;2023-02-16T05:45:22;96123.75;;;-2.72;100.00
5913;BME280;2982;42.684;23.356;2023-02-16T05:47:48;96124.66;;;-2.67;100.00
5913;BME280;2982;42.684;23.356;2023-02-16T05:50:13;96117.31;;;-2.59;100.00
5913;BME280;2982;42.684;23.356;2023-02-16T05:52:38;96079.69;;;-2.80;100.00
5913;BME280;2982;42.684;23.356;2023-02-16T05:55:04;96126.72;;;-2.41;100.00
5913;BME280;2982;42.684;23.356;2023-02-16T05:57:29;96125.25;;;-2.30;100.00
5913;BME280;2982;42.684;23.356;2023-02-16T05:59:54;96120.41;;;-2.21;100.00
5913;BME280;2982;42.684;23.356;2023-02-16T06:02:20;96126.31;;;-2.14;100.00
5913;BME280;2982;42.684;23.356;2023-02-16T06:04:45;96123.22;;;-2.01;100.00
5913;BME280;2982;42.684;23.356;2023-02-16T06:07:10;96128.34;;;-1.89;100.00
5913;BME280;2982;42.684;23.356;2023-02-16T06:09:36;96133.38;;;-1.85;100.00
5913;BME280;2982;42.684;23.356;2023-02-16T06:12:01;96133.50;;;-1.75;100.00
5913;BME280;2982;42.684;23.356;2023-02-16T06:14:26;96127.81;;;-1.68;100.00
5913;BME280;2982;42.684;23.356;2023-02-16T06:16:51;96145.41;;;-1.56;100.00
5913;BME280;2982;42.684;23.356;2023-02-16T06:19:17;96153.91;;;-1.42;100.00
5913;BME280;2982;42.684;23.356;2023-02-16T06:21:43;96146.41;;;-1.42;100.00
5913;BME280;2982;42.684;23.356;2023-02-16T06:24:10;96156.44;;;-1.38;100.00
5913;BME280;2982;42.684;23.356;2023-02-16T06:26:36;96162.25;;;-1.39;100.00
5913;BME280;2982;42.684;23.356;2023-02-16T06:29:02;96158.06;;;-1.40;100.00
5913;BME280;2982;42.684;23.356;2023-02-16T06:31:27;96164.00;;;-1.31;100.00
5913;BME280;2982;42.684;23.356;2023-02-16T06:33:53;96157.44;;;-1.23;100.00
5913;BME280;2982;42.684;23.356;2023-02-16T06:36:19;96157.63;;;-1.07;100.00
5913;BME280;2982;42.684;23.356;2023-02-16T06:38:45;96141.06;;;-1.02;100.00
5913;BME280;2982;42.684;23.356;2023-02-16T06:41:10;96162.94;;;-0.79;100.00
5913;BME280;2982;42.684;23.356;2023-02-16T06:43:36;96176.34;;;-0.71;100.00
5913;BME280;2982;42.684;23.356;2023-02-16T06:46:02;96174.84;;;-0.54;100.00
5913;BME280;2982;42.684;23.356;2023-02-16T06:48:27;96160.81;;;-0.40;100.00
5913;BME280;2982;42.684;23.356;2023-02-16T06:50:52;96162.53;;;-0.37;100.00
5913;BME280;2982;42.684;23.356;2023-02-16T06:53:18;96168.47;;;-0.22;100.00
5913;BME280;2982;42.684;23.356;2023-02-16T06:55:43;96177.75;;;-0.07;100.00
5913;BME280;2982;42.684;23.356;2023-02-16T06:58:09;96162.75;;;-0.12;100.00
5913;BME280;2982;42.684;23.356;2023-02-16T07:00:35;96169.56;;;0.08;100.00
5913;BME280;2982;42.684;23.356;2023-02-16T07:03:00;96173.78;;;0.18;100.00
5913;BME280;2982;42.684;23.356;2023-02-16T07:05:26;96170.44;;;0.19;100.00
5913;BME280;2982;42.684;23.356;2023-02-16T07:07:51;96176.34;;;0.30;100.00
5913;BME280;2982;42.684;23.356;2023-02-16T07:10:16;96177.97;;;0.20;100.00
5913;BME280;2982;42.684;23.356;2023-02-16T07:12:42;96172.16;;;0.26;100.00
5913;BME280;2982;42.684;23.356;2023-02-16T07:15:08;96171.34;;;0.27;100.00
5913;BME280;2982;42.684;23.356;2023-02-16T07:17:33;96152.22;;;0.30;100.00
5913;BME280;2982;42.684;23.356;2023-02-16T07:19:58;96160.59;;;0.38;100.00
5913;BME280;2982;42.684;23.356;2023-02-16T07:22:24;96165.66;;;0.46;100.00
5913;BME280;2982;42.684;23.356;2023-02-16T07:24:49;96156.31;;;0.18;100.00
5913;BME280;2982;42.684;23.356;2023-02-16T07:27:15;96151.38;;;0.31;100.00
5913;BME280;2982;42.684;23.356;2023-02-16T07:29:40;96156.50;;;0.51;100.00
5913;BME280;2982;42.684;23.356;2023-02-16T07:32:05;96151.59;;;0.69;100.00
5913;BME280;2982;42.684;23.356;2023-02-16T07:34:31;96144.97;;;0.77;100.00
5913;BME280;2982;42.684;23.356;2023-02-16T07:36:56;96148.28;;;0.79;100.00
5913;BME280;2982;42.684;23.356;2023-02-16T07:39:21;96147.53;;;0.97;100.00
5913;BME280;2982;42.684;23.356;2023-02-16T07:41:47;96148.44;;;1.16;100.00
5913;BME280;2982;42.684;23.356;2023-02-16T07:44:12;96144.31;;;1.30;100.00
5913;BME280;2982;42.684;23.356;2023-02-16T07:46:37;96131.78;;;1.30;100.00
5913;BME280;2982;42.684;23.356;2023-02-16T07:49:02;96150.16;;;1.41;100.00
5913;BME280;2982;42.684;23.356;2023-02-16T07:51:29;96140.16;;;1.44;100.00
5913;BME280;2982;42.684;23.356;2023-02-16T07:53:55;96120.97;;;1.49;100.00
5913;BME280;2982;42.684;23.356;2023-02-16T07:56:23;96156.03;;;1.70;100.00
5913;BME280;2982;42.684;23.356;2023-02-16T07:58:53;96156.88;;;1.74;100.00
5913;BME280;2982;42.684;23.356;2023-02-16T08:01:19;96143.50;;;1.55;100.00
5913;BME280;2982;42.684;23.356;2023-02-16T08:03:45;96119.28;;;1.33;100.00
5913;BME280;2982;42.684;23.356;2023-02-16T08:06:10;96144.34;;;1.62;100.00
5913;BME280;2982;42.684;23.356;2023-02-16T08:08:36;96165.25;;;1.85;100.00
5913;BME280;2982;42.684;23.356;2023-02-16T08:13:38;96131.00;;;1.84;100.00
5913;BME280;2982;42.684;23.356;2023-02-16T08:16:08;96150.22;;;2.08;100.00
5913;BME280;2982;42.684;23.356;2023-02-16T08:18:34;96166.91;;;2.30;100.00
5913;BME280;2982;42.684;23.356;2023-02-16T08:21:24;96168.56;;;2.40;100.00
5913;BME280;2982;42.684;23.356;2023-02-16T08:23:53;96163.53;;;2.43;100.00
5913;BME280;2982;42.684;23.356;2023-02-16T08:26:20;96166.00;;;2.63;100.00
5913;BME280;2982;42.684;23.356;2023-02-16T08:28:47;96170.97;;;2.78;100.00
5913;BME280;2982;42.684;23.356;2023-02-16T08:31:15;96168.41;;;2.95;100.00
5913;BME280;2982;42.684;23.356;2023-02-16T08:33:40;96170.09;;;2.96;100.00
5913;BME280;2982;42.684;23.356;2023-02-16T08:36:06;96165.03;;;3.00;100.00
5913;BME280;2982;42.684;23.356;2023-02-16T08:38:31;96170.84;;;3.15;100.00
5913;BME280;2982;42.684;23.356;2023-02-16T08:40:57;96164.91;;;3.28;100.00
5913;BME280;2982;42.684;23.356;2023-02-16T08:43:22;96158.16;;;3.37;100.00
5913;BME280;2982;42.684;23.356;2023-02-16T08:45:48;96164.81;;;3.49;100.00
5913;BME280;2982;42.684;23.356;2023-02-16T08:48:13;96168.00;;;3.74;100.00
5913;BME280;2982;42.684;23.356;2023-02-16T08:50:46;96156.28;;;3.70;100.00
5913;BME280;2982;42.684;23.356;2023-02-16T08:53:12;96142.81;;;3.78;100.00
5913;BME280;2982;42.684;23.356;2023-02-16T08:55:38;96164.53;;;3.91;100.00
5913;BME280;2982;42.684;23.356;2023-02-16T08:58:04;96156.97;;;3.94;100.00
5913;BME280;2982;42.684;23.356;2023-02-16T09:00:29;96165.34;;;3.93;100.00
5913;BME280;2982;42.684;23.356;2023-02-16T09:02:57;96155.94;;;4.17;100.00
5913;BME280;2982;42.684;23.356;2023-02-16T09:05:22;96133.34;;;4.15;100.00
5913;BME280;2982;42.684;23.356;2023-02-16T09:07:48;96124.00;;;4.25;100.00
5913;BME280;2982;42.684;23.356;2023-02-16T09:10:13;96149.81;;;4.43;100.00
5913;BME280;2982;42.684;23.356;2023-02-16T09:12:38;96154.72;;;4.60;100.00
5913;BME280;2982;42.684;23.356;2023-02-16T09:15:04;96142.81;;;4.73;100.00
5913;BME280;2982;42.684;23.356;2023-02-16T09:17:29;96157.03;;;4.80;100.00
5913;BME280;2982;42.684;23.356;2023-02-16T09:19:54;96147.78;;;4.79;100.00
5913;BME280;2982;42.684;23.356;2023-02-16T09:22:20;96151.06;;;4.87;100.00
5913;BME280;2982;42.684;23.356;2023-02-16T09:24:45;96146.06;;;4.84;100.00
5913;BME280;2982;42.684;23.356;2023-02-16T09:27:10;96147.47;;;5.06;100.00
5913;BME280;2982;42.684;23.356;2023-02-16T09:29:35;96151.50;;;5.21;100.00
5913;BME280;2982;42.684;23.356;2023-02-16T09:32:01;96133.19;;;5.08;100.00
5913;BME280;2982;42.684;23.356;2023-02-16T09:34:26;96127.91;;;5.26;100.00
5913;BME280;2982;42.684;23.356;2023-02-16T09:36:51;96121.03;;;5.39;100.00
5913;BME280;2982;42.684;23.356;2023-02-16T09:39:17;96136.66;;;5.62;100.00
5913;BME280;2982;42.684;23.356;2023-02-16T09:44:35;96119.97;;;5.52;100.00
5913;BME280;2982;42.684;23.356;2023-02-16T09:47:08;96128.44;;;5.50;100.00
5913;BME280;2982;42.684;23.356;2023-02-16T09:49:38;96124.22;;;5.50;100.00
5913;BME280;2982;42.684;23.356;2023-02-16T09:54:54;96115.56;;;5.66;100.00
5913;BME280;2982;42.684;23.356;2023-02-16T10:01:08;96107.66;;;6.40;100.00
5913;BME280;2982;42.684;23.356;2023-02-16T10:08:43;96086.56;;;6.88;100.00
5913;BME280;2982;42.684;23.356;2023-02-16T10:13:49;96102.06;;;6.70;100.00
5913;BME280;2982;42.684;23.356;2023-02-16T10:16:22;96091.66;;;6.42;100.00
5913;BME280;2982;42.684;23.356;2023-02-16T10:18:52;96059.97;;;6.28;100.00
5913;BME280;2982;42.684;23.356;2023-02-16T10:21:23;96082.84;;;6.63;100.00
5913;BME280;2982;42.684;23.356;2023-02-16T10:24:02;96076.88;;;6.67;100.00
5913;BME280;2982;42.684;23.356;2023-02-16T10:26:37;96069.84;;;6.81;100.00
5913;BME280;2982;42.684;23.356;2023-02-16T10:31:41;96077.34;;;7.26;100.00
5913;BME280;2982;42.684;23.356;2023-02-16T10:34:23;96072.06;;;7.36;100.00
5913;BME280;2982;42.684;23.356;2023-02-16T10:42:47;96061.75;;;7.81;98.29
5913;BME280;2982;42.684;23.356;2023-02-16T10:47:48;96052.44;;;7.83;94.33
5913;BME280;2982;42.684;23.356;2023-02-16T10:52:55;96057.75;;;7.72;94.01
5913;BME280;2982;42.684;23.356;2023-02-16T10:55:22;96041.63;;;7.76;94.75
5913;BME280;2982;42.684;23.356;2023-02-16T10:57:57;96043.69;;;7.94;95.86
5913;BME280;2982;42.684;23.356;2023-02-16T11:01:21;96033.34;;;8.04;92.92
5913;BME280;2982;42.684;23.356;2023-02-16T11:03:24;96028.22;;;8.07;92.97
5913;BME280;2982;42.684;23.356;2023-02-16T11:05:50;96031.13;;;8.25;91.65
5913;BME280;2982;42.684;23.356;2023-02-16T11:08:16;96026.50;;;8.41;88.43
5913;BME280;2982;42.684;23.356;2023-02-16T11:10:50;96026.69;;;8.35;88.16
5913;BME280;2982;42.684;23.356;2023-02-16T11:13:24;96003.97;;;8.32;88.70
5913;BME280;2982;42.684;23.356;2023-02-16T11:15:56;96021.16;;;8.52;87.65
5913;BME280;2982;42.684;23.356;2023-02-16T11:18:28;95998.34;;;8.52;88.27
5913;BME280;2982;42.684;23.356;2023-02-16T11:20:56;96019.81;;;8.69;84.86
5913;BME280;2982;42.684;23.356;2023-02-16T11:23:31;96023.84;;;8.76;84.90
5913;BME280;2982;42.684;23.356;2023-02-16T11:26:22;96021.50;;;8.39;85.81
5913;BME280;2982;42.684;23.356;2023-02-16T11:28:49;96015.88;;;8.27;88.13
5913;BME280;2982;42.684;23.356;2023-02-16T11:34:42;96002.00;;;8.42;86.83
5913;BME280;2982;42.684;23.356;2023-02-16T11:36:48;96000.75;;;8.56;84.64
5913;BME280;2982;42.684;23.356;2023-02-16T11:42:04;95978.00;;;8.55;84.50
5913;BME280;2982;42.684;23.356;2023-02-16T11:44:41;95986.75;;;8.74;84.63
5913;BME280;2982;42.684;23.356;2023-02-16T11:47:22;95989.50;;;8.96;82.20
5913;BME280;2982;42.684;23.356;2023-02-16T11:49:50;95985.84;;;8.76;82.17
5913;BME280;2982;42.684;23.356;2023-02-16T11:52:29;95987.03;;;8.93;81.42
5913;BME280;2982;42.684;23.356;2023-02-16T11:54:56;95987.25;;;9.14;81.61
5913;BME280;2982;42.684;23.356;2023-02-16T11:57:24;95983.34;;;9.31;78.81
5913;BME280;2982;42.684;23.356;2023-02-16T11:59:50;95985.28;;;9.49;78.34
5913;BME280;2982;42.684;23.356;2023-02-16T12:04:57;95969.63;;;9.62;75.35
5913;BME280;2982;42.684;23.356;2023-02-16T12:07:55;95965.41;;;9.63;76.10
5913;BME280;2982;42.684;23.356;2023-02-16T12:10:34;95966.75;;;9.73;73.70
5913;BME280;2982;42.684;23.356;2023-02-16T12:13:21;95956.41;;;9.79;72.93
5913;BME280;2982;42.684;23.356;2023-02-16T12:18:45;95945.72;;;9.94;71.43
5913;BME280;2982;42.684;23.356;2023-02-16T12:21:51;95946.81;;;9.87;70.19
5913;BME280;2982;42.684;23.356;2023-02-16T12:27:01;95893.06;;;9.76;69.23
5913;BME280;2982;42.684;23.356;2023-02-16T12:43:31;95920.91;;;10.50;65.35
5913;BME280;2982;42.684;23.356;2023-02-16T12:46:03;95907.28;;;10.53;64.79
5913;BME280;2982;42.684;23.356;2023-02-16T12:48:49;95912.72;;;10.66;65.87
5913;BME280;2982;42.684;23.356;2023-02-16T12:51:42;95907.19;;;10.78;64.60
5913;BME280;2982;42.684;23.356;2023-02-16T12:54:52;95903.91;;;10.74;65.20
5913;BME280;2982;42.684;23.356;2023-02-16T12:57:12;95900.44;;;10.77;64.12
5913;BME280;2982;42.684;23.356;2023-02-16T13:02:40;95885.13;;;10.78;63.67
5913;BME280;2982;42.684;23.356;2023-02-16T13:05:20;95896.53;;;10.90;64.08
5913;BME280;2982;42.684;23.356;2023-02-16T13:07:51;95862.25;;;10.78;62.51
5913;BME280;2982;42.684;23.356;2023-02-16T13:10:32;95881.63;;;11.02;61.30
5913;BME280;2982;42.684;23.356;2023-02-16T13:13:11;95885.97;;;11.00;60.93
5913;BME280;2982;42.684;23.356;2023-02-16T13:15:40;95883.66;;;10.94;60.74
5913;BME280;2982;42.684;23.356;2023-02-16T13:20:47;95875.63;;;11.05;60.76
5913;BME280;2982;42.684;23.356;2023-02-16T13:26:14;95869.84;;;11.22;59.87
5913;BME280;2982;42.684;23.356;2023-02-16T13:40:03;95860.25;;;11.48;58.60
5913;BME280;2982;42.684;23.356;2023-02-16T13:45:33;95850.84;;;11.51;57.80
5913;BME280;2982;42.684;23.356;2023-02-16T13:48:19;95838.72;;;11.37;59.51
5913;BME280;2982;42.684;23.356;2023-02-16T13:50:45;95853.88;;;11.38;58.69
5913;BME280;2982;42.684;23.356;2023-02-16T13:55:40;95834.50;;;11.36;57.68
5913;BME280;2982;42.684;23.356;2023-02-16T14:00:37;95852.56;;;11.30;58.46
5913;BME280;2982;42.684;23.356;2023-02-16T14:03:08;95846.41;;;11.35;57.80
5913;BME280;2982;42.684;23.356;2023-02-16T14:05:38;95848.28;;;11.10;57.79
5913;BME280;2982;42.684;23.356;2023-02-16T14:08:11;95842.13;;;11.16;58.24
5913;BME280;2982;42.684;23.356;2023-02-16T14:13:27;95847.69;;;11.03;58.18
5913;BME280;2982;42.684;23.356;2023-02-16T14:15:55;95841.75;;;11.04;58.45
5913;BME280;2982;42.684;23.356;2023-02-16T14:21:00;95844.97;;;11.08;59.22
5913;BME280;2982;42.684;23.356;2023-02-16T14:23:28;95828.06;;;10.87;59.00
5913;BME280;2982;42.684;23.356;2023-02-16T14:26:02;95825.31;;;10.91;58.66
5913;BME280;2982;42.684;23.356;2023-02-16T14:30:56;95836.38;;;10.90;59.16
5913;BME280;2982;42.684;23.356;2023-02-16T14:33:43;95835.59;;;10.88;58.45
5913;BME280;2982;42.684;23.356;2023-02-16T14:36:21;95832.53;;;10.80;58.57
5913;BME280;2982;42.684;23.356;2023-02-16T14:38:47;95829.53;;;10.71;59.08
5913;BME280;2982;42.684;23.356;2023-02-16T14:41:31;95838.03;;;10.70;59.15
5913;BME280;2982;42.684;23.356;2023-02-16T14:46:45;95834.84;;;10.65;60.74
5913;BME280;2982;42.684;23.356;2023-02-16T14:58:37;95829.94;;;10.38;63.28
5913;BME280;2982;42.684;23.356;2023-02-16T15:01:14;95810.34;;;10.19;62.37
5913;BME280;2982;42.684;23.356;2023-02-16T15:03:48;95820.59;;;10.17;62.72
5913;BME280;2982;42.684;23.356;2023-02-16T15:06:36;95827.38;;;10.15;63.28
5913;BME280;2982;42.684;23.356;2023-02-16T15:09:14;95822.53;;;10.09;63.60
5913;BME280;2982;42.684;23.356;2023-02-16T15:11:48;95821.66;;;10.10;65.17
5913;BME280;2982;42.684;23.356;2023-02-16T15:14:14;95815.91;;;10.05;65.94
5913;BME280;2982;42.684;23.356;2023-02-16T15:16:40;95818.66;;;9.99;66.38
5913;BME280;2982;42.684;23.356;2023-02-16T15:19:16;95816.41;;;9.91;66.54
5913;BME280;2982;42.684;23.356;2023-02-16T15:21:44;95831.69;;;9.90;67.62
5913;BME280;2982;42.684;23.356;2023-02-16T15:24:21;95822.69;;;9.81;68.02
5913;BME280;2982;42.684;23.356;2023-02-16T15:26:55;95797.97;;;9.63;68.57